Time;durP1;ratioP1;P1;durP2;ratioP2;P2;SDS_P1;SDS_P2;PMS_P1;PMS_P2;Temp;Humidity;BMP_temperature;BMP_pressure;BME280_temperature;BME280_humidity;BME280_pressure;Samples;Min_cycle;Max_cycle;Signal;HPM_P1;HPM_P2
2023/05/10 00:00:25;;;;;;;10.75;9.65;;;13.50;99.90;;;;;;4931298;28;20057;-66
2023/05/10 00:02:51;;;;;;;9.65;8.73;;;13.50;99.90;;;;;;4939021;28;20062;-66
2023/05/10 00:05:16;;;;;;;8.77;7.70;;;13.50;99.90;;;;;;4932452;28;20043;-65
2023/05/10 00:07:44;;;;;;;9.32;8.00;;;13.50;99.90;;;;;;4939161;28;20054;-65
2023/05/10 00:10:11;;;;;;;8.65;7.75;;;13.40;99.90;;;;;;4939389;28;20047;-65
2023/05/10 00:12:37;;;;;;;8.55;7.68;;;13.40;99.90;;;;;;4925237;28;20117;-66
2023/05/10 00:15:03;;;;;;;9.00;8.10;;;13.40;99.90;;;;;;4946278;28;20580;-66
2023/05/10 00:17:29;;;;;;;10.50;8.35;;;13.40;99.90;;;;;;4942525;28;20490;-66
2023/05/10 00:19:54;;;;;;;9.18;7.50;;;13.40;99.90;;;;;;4941114;28;20070;-66
2023/05/10 00:22:21;;;;;;;9.73;7.85;;;13.30;99.90;;;;;;4932922;28;20058;-66
2023/05/10 00:24:46;;;;;;;8.75;7.63;;;13.30;99.90;;;;;;4948445;28;20047;-66
2023/05/10 00:27:12;;;;;;;8.68;7.13;;;13.30;99.90;;;;;;4938661;28;20437;-66
2023/05/10 00:29:38;;;;;;;8.77;7.88;;;13.30;99.90;;;;;;4932309;28;20562;-67
2023/05/10 00:32:04;;;;;;;10.20;7.90;;;13.30;99.90;;;;;;4941872;28;20047;-65
2023/05/10 00:34:30;;;;;;;9.52;7.70;;;13.30;99.90;;;;;;4947637;28;20043;-66
2023/05/10 00:36:56;;;;;;;7.85;7.00;;;13.30;99.90;;;;;;4937283;28;20097;-66
2023/05/10 00:39:21;;;;;;;8.30;7.40;;;13.30;99.90;;;;;;4911893;28;20580;-65
2023/05/10 00:41:47;;;;;;;12.13;7.95;;;13.30;99.90;;;;;;4939683;28;20054;-66
2023/05/10 00:44:13;;;;;;;7.78;6.95;;;13.30;99.90;;;;;;4944587;28;20118;-65
2023/05/10 00:46:39;;;;;;;9.18;7.65;;;13.20;99.90;;;;;;4916192;28;20047;-66
2023/05/10 00:49:05;;;;;;;8.35;7.50;;;13.20;99.90;;;;;;4910155;28;20824;-66
2023/05/10 00:51:32;;;;;;;7.85;7.07;;;13.20;99.90;;;;;;4918840;28;20063;-66
2023/05/10 00:53:58;;;;;;;8.35;7.55;;;13.20;99.90;;;;;;4947261;28;20150;-66
2023/05/10 00:56:25;;;;;;;8.00;7.20;;;13.20;99.90;;;;;;4931942;28;22496;-66
2023/05/10 00:58:51;;;;;;;6.35;5.75;;;13.20;99.90;;;;;;4942134;28;20622;-66
2023/05/10 01:01:17;;;;;;;6.10;5.47;;;13.20;99.90;;;;;;4925629;28;20060;-65
2023/05/10 01:03:43;;;;;;;7.68;5.70;;;13.10;99.90;;;;;;4947690;28;20073;-66
2023/05/10 01:06:09;;;;;;;6.20;5.60;;;13.10;99.90;;;;;;4925021;28;20074;-66
2023/05/10 01:08:36;;;;;;;6.90;6.20;;;13.10;99.90;;;;;;4933062;28;20505;-66
2023/05/10 01:11:02;;;;;;;7.22;6.53;;;13.10;99.90;;;;;;4941482;28;20560;-66
2023/05/10 01:13:40;;;;;;;8.13;6.47;;;13.00;99.90;;;;;;4940987;28;21006;-65
2023/05/10 01:16:06;;;;;;;7.30;6.50;;;13.00;99.90;;;;;;4945999;28;20050;-66
2023/05/10 01:18:40;;;;;;;7.53;6.72;;;13.00;99.90;;;;;;4928466;28;20050;-66
2023/05/10 01:21:34;;;;;;;7.43;6.65;;;13.00;99.90;;;;;;4962406;28;20049;-66
2023/05/10 01:24:30;;;;;;;9.63;7.57;;;13.00;99.90;;;;;;4947545;28;21207;-66
2023/05/10 01:27:19;;;;;;;8.23;7.40;;;13.00;99.90;;;;;;4945649;28;20050;-66
2023/05/10 01:30:19;;;;;;;8.15;7.35;;;13.00;99.90;;;;;;4915749;28;20053;-67
2023/05/10 01:33:17;;;;;;;8.98;8.02;;;13.00;99.90;;;;;;4933949;28;20469;-66
2023/05/10 01:35:54;;;;;;;8.85;7.90;;;12.90;99.90;;;;;;4943669;28;22482;-66
2023/05/10 01:38:57;;;;;;;8.88;7.65;;;12.90;99.90;;;;;;4927411;28;20046;-67
2023/05/10 01:41:50;;;;;;;11.98;8.45;;;12.90;99.90;;;;;;4887595;28;20058;-66
2023/05/10 01:44:56;;;;;;;9.20;8.30;;;12.90;99.90;;;;;;4941137;28;20050;-66
2023/05/10 01:47:42;;;;;;;10.80;8.63;;;12.90;99.90;;;;;;4916109;28;20056;-67
2023/05/10 01:50:15;;;;;;;10.13;8.95;;;12.90;99.90;;;;;;4944239;28;20058;-66
2023/05/10 01:52:47;;;;;;;;;;;12.80;99.90;;;;;;4915983;28;20050;-66
2023/05/10 01:55:17;;;;;;;10.10;8.95;;;12.80;99.90;;;;;;4921512;28;19925;-67
2023/05/10 01:57:46;;;;;;;10.75;8.18;;;12.80;99.90;;;;;;4920923;28;20128;-67
2023/05/10 02:00:13;;;;;;;8.85;7.95;;;12.80;99.90;;;;;;4923092;28;20046;-66
2023/05/10 02:02:45;;;;;;;9.80;7.90;;;12.80;99.90;;;;;;4910013;28;20085;-66
2023/05/10 02:05:14;;;;;;;8.60;7.70;;;12.80;99.90;;;;;;4889666;28;20081;-66
2023/05/10 02:07:42;;;;;;;8.73;7.35;;;12.80;99.90;;;;;;4908569;28;20145;-66
2023/05/10 02:10:10;;;;;;;8.38;7.57;;;12.80;99.90;;;;;;4903960;28;20162;-65
2023/05/10 02:12:39;;;;;;;8.35;7.55;;;12.80;99.90;;;;;;4916128;28;20039;-67
2023/05/10 02:15:06;;;;;;;8.38;7.50;;;12.80;99.90;;;;;;4907303;28;20054;-66
2023/05/10 02:17:34;;;;;;;8.13;7.10;;;12.80;99.90;;;;;;4916338;28;20047;-66
2023/05/10 02:20:01;;;;;;;7.93;6.97;;;12.80;99.90;;;;;;4916658;28;20118;-67
2023/05/10 02:22:28;;;;;;;7.43;6.75;;;12.70;99.90;;;;;;4904553;28;20047;-66
2023/05/10 02:24:59;;;;;;;7.75;6.88;;;12.70;99.90;;;;;;4919823;28;20035;-66
2023/05/10 02:27:27;;;;;;;9.02;7.25;;;12.70;99.90;;;;;;4902252;28;20055;-66
2023/05/10 02:29:54;;;;;;;7.93;7.15;;;12.70;99.90;;;;;;4917689;28;20118;-66
2023/05/10 02:32:22;;;;;;;8.63;7.68;;;12.70;99.90;;;;;;4909467;28;20159;-65
2023/05/10 02:34:51;;;;;;;9.32;8.02;;;12.70;99.90;;;;;;4922329;28;20131;-65
2023/05/10 02:37:20;;;;;;;9.38;8.07;;;12.70;99.90;;;;;;4901651;28;20039;-66
2023/05/10 02:39:54;;;;;;;9.30;8.30;;;12.70;99.90;;;;;;4922444;28;20269;-66
2023/05/10 02:42:26;;;;;;;11.43;8.60;;;12.70;99.90;;;;;;4915174;28;20047;-66
2023/05/10 02:44:56;;;;;;;10.75;9.07;;;12.70;99.90;;;;;;4935680;28;20047;-66
2023/05/10 02:47:22;;;;;;;13.88;10.15;;;12.70;99.90;;;;;;4921110;28;20057;-65
2023/05/10 02:49:48;;;;;;;14.77;10.68;;;12.70;99.90;;;;;;4905119;28;20053;-66
2023/05/10 02:52:19;;;;;;;14.55;10.38;;;12.70;99.90;;;;;;4936977;28;20058;-66
2023/05/10 02:54:50;;;;;;;16.33;11.80;;;12.70;99.90;;;;;;4924641;28;20049;-66
2023/05/10 02:57:19;;;;;;;17.00;12.43;;;12.60;99.90;;;;;;4932444;28;20076;-66
2023/05/10 02:59:45;;;;;;;15.45;11.93;;;12.60;99.90;;;;;;4947160;28;20058;-66
2023/05/10 03:02:12;;;;;;;16.38;10.98;;;12.60;99.90;;;;;;4934717;28;20042;-66
2023/05/10 03:04:38;;;;;;;14.27;11.13;;;12.60;99.90;;;;;;4933686;28;20505;-66
2023/05/10 03:07:04;;;;;;;15.88;11.45;;;12.60;99.90;;;;;;4941020;28;20047;-66
2023/05/10 03:09:31;;;;;;;14.63;11.48;;;12.60;99.90;;;;;;4929162;28;20129;-67
2023/05/10 03:12:37;;;;;;;15.75;12.10;;;12.60;99.90;;;;;;4928272;28;20130;-65
2023/05/10 03:15:06;;;;;;;15.63;11.88;;;12.60;99.90;;;;;;4902867;28;20050;-66
2023/05/10 03:17:48;;;;;;;18.48;12.68;;;12.60;99.90;;;;;;4947245;28;20055;-66
2023/05/10 03:20:50;;;;;;;15.82;12.07;;;12.60;99.90;;;;;;4944761;28;20042;-66
2023/05/10 03:23:44;;;;;;;19.75;13.98;;;12.60;99.90;;;;;;4921521;28;20184;-66
2023/05/10 03:26:17;;;;;;;17.45;14.02;;;12.60;99.90;;;;;;4951202;28;20046;-66
2023/05/10 03:28:43;;;;;;;;;;;12.60;99.90;;;;;;4949357;28;20113;-66
2023/05/10 03:31:09;;;;;;;17.38;13.73;;;12.60;99.90;;;;;;4934182;28;19926;-65
2023/05/10 03:33:35;;;;;;;17.38;13.55;;;12.60;99.90;;;;;;4951997;28;20053;-66
2023/05/10 03:36:01;;;;;;;17.92;13.55;;;12.60;99.90;;;;;;4945995;28;20082;-66
2023/05/10 03:38:26;;;;;;;17.92;14.35;;;12.60;99.90;;;;;;4948893;28;20052;-66
2023/05/10 03:40:52;;;;;;;19.02;14.07;;;12.70;99.90;;;;;;4947556;28;20042;-66
2023/05/10 03:43:18;;;;;;;18.23;13.80;;;12.60;99.90;;;;;;4939478;28;20046;-66
2023/05/10 03:45:43;;;;;;;21.48;14.52;;;12.60;99.90;;;;;;4943860;28;20109;-66
2023/05/10 03:48:09;;;;;;;18.60;13.65;;;12.60;99.90;;;;;;4945060;28;20419;-66
2023/05/10 03:50:35;;;;;;;19.40;14.07;;;12.60;99.90;;;;;;4926725;28;20177;-65
2023/05/10 03:53:02;;;;;;;18.38;13.98;;;12.60;99.90;;;;;;4925042;28;20381;-66
2023/05/10 03:55:28;;;;;;;20.20;14.18;;;12.60;99.90;;;;;;4912066;28;20481;-66
2023/05/10 03:57:54;;;;;;;16.48;12.07;;;12.60;99.90;;;;;;4916555;28;20063;-66
2023/05/10 04:00:20;;;;;;;13.70;10.20;;;12.60;99.90;;;;;;4898635;28;20101;-67
2023/05/10 04:02:45;;;;;;;12.13;8.90;;;12.60;99.90;;;;;;4925412;28;20046;-66
2023/05/10 04:05:12;;;;;;;10.60;7.30;;;12.60;99.90;;;;;;4917334;28;20057;-66
2023/05/10 04:07:38;;;;;;;8.73;6.45;;;12.50;99.90;;;;;;4932065;28;20311;-69
2023/05/10 04:10:04;;;;;;;8.00;6.43;;;12.50;99.90;;;;;;4927723;28;20049;-66
2023/05/10 04:12:29;;;;;;;7.72;5.97;;;12.50;99.90;;;;;;4929347;28;20986;-66
2023/05/10 04:14:55;;;;;;;7.82;6.30;;;12.50;99.90;;;;;;4913480;28;20046;-66
2023/05/10 04:17:21;;;;;;;7.68;6.03;;;12.50;99.90;;;;;;4929789;28;20086;-66
2023/05/10 04:19:47;;;;;;;7.40;6.00;;;12.50;99.90;;;;;;4916728;28;20050;-65
2023/05/10 04:22:12;;;;;;;9.05;6.78;;;12.50;99.90;;;;;;4909154;28;20062;-66
2023/05/10 04:24:38;;;;;;;7.72;6.50;;;12.40;99.90;;;;;;4925650;28;20050;-67
2023/05/10 04:27:04;;;;;;;8.85;6.28;;;12.40;99.90;;;;;;4905600;28;20053;-67
2023/05/10 04:29:29;;;;;;;8.68;6.32;;;12.40;99.90;;;;;;4920978;28;20066;-67
2023/05/10 04:31:56;;;;;;;7.43;6.22;;;12.40;99.90;;;;;;4909776;28;20046;-67
2023/05/10 04:34:22;;;;;;;8.73;6.50;;;12.40;99.90;;;;;;4919269;28;20647;-66
2023/05/10 04:36:47;;;;;;;7.80;6.07;;;12.40;99.90;;;;;;4925972;28;20104;-67
2023/05/10 04:39:13;;;;;;;8.05;6.50;;;12.40;99.90;;;;;;4923294;28;20050;-66
2023/05/10 04:41:39;;;;;;;7.00;5.88;;;12.40;99.90;;;;;;4912674;28;20061;-66
2023/05/10 04:44:05;;;;;;;7.53;6.30;;;12.40;99.90;;;;;;4910725;28;20054;-66
2023/05/10 04:46:31;;;;;;;6.45;5.80;;;12.40;99.90;;;;;;4895074;28;20051;-66
2023/05/10 04:48:56;;;;;;;8.10;6.13;;;12.40;99.90;;;;;;4921382;28;20129;-67
2023/05/10 04:51:22;;;;;;;7.55;6.45;;;12.40;99.90;;;;;;4933427;28;20782;-66
2023/05/10 04:53:48;;;;;;;8.25;6.10;;;12.40;99.90;;;;;;4926693;28;20457;-66
2023/05/10 04:56:13;;;;;;;6.95;5.75;;;12.40;99.90;;;;;;4946672;28;20144;-66
2023/05/10 04:58:39;;;;;;;7.45;6.13;;;12.40;99.90;;;;;;4935511;28;20053;-66
2023/05/10 05:01:07;;;;;;;6.43;5.82;;;12.40;99.90;;;;;;4932958;28;20069;-67
2023/05/10 05:03:33;;;;;;;7.20;6.50;;;12.40;99.90;;;;;;4935342;28;22176;-66
2023/05/10 05:05:59;;;;;;;6.50;5.88;;;12.40;99.90;;;;;;4946534;28;20054;-66
2023/05/10 05:08:25;;;;;;;8.85;5.72;;;12.40;99.90;;;;;;4932682;28;20516;-65
2023/05/10 05:10:50;;;;;;;7.07;6.22;;;12.40;99.90;;;;;;4944379;28;20520;-66
2023/05/10 05:13:16;;;;;;;6.32;5.60;;;12.40;99.90;;;;;;4933506;28;20055;-66
2023/05/10 05:15:42;;;;;;;6.47;5.85;;;12.50;99.90;;;;;;4946812;28;20042;-67
2023/05/10 05:18:08;;;;;;;6.75;6.07;;;12.50;99.90;;;;;;4898282;28;20169;-66
2023/05/10 05:20:34;;;;;;;7.10;6.40;;;12.40;99.90;;;;;;4938473;28;20042;-67
2023/05/10 05:23:00;;;;;;;7.10;6.40;;;12.50;99.90;;;;;;4925364;28;20547;-67
2023/05/10 05:25:26;;;;;;;7.95;6.95;;;12.40;99.90;;;;;;4938002;28;20050;-66
2023/05/10 05:27:52;;;;;;;6.97;6.28;;;12.50;99.90;;;;;;4925483;28;20057;-66
2023/05/10 05:30:17;;;;;;;7.97;6.95;;;12.50;99.90;;;;;;4939199;28;20069;-67
2023/05/10 05:32:44;;;;;;;7.68;6.90;;;12.50;99.90;;;;;;4941440;28;20118;-66
2023/05/10 05:35:10;;;;;;;7.03;6.32;;;12.50;99.90;;;;;;4924285;28;20042;-66
2023/05/10 05:37:35;;;;;;;7.07;6.18;;;12.50;99.90;;;;;;4924485;28;20112;-66
2023/05/10 05:40:01;;;;;;;7.10;6.22;;;12.50;99.90;;;;;;4941412;28;20165;-66
2023/05/10 05:42:27;;;;;;;6.68;5.97;;;12.50;99.90;;;;;;4925114;28;20602;-66
2023/05/10 05:44:53;;;;;;;6.57;5.78;;;12.50;99.90;;;;;;4926034;28;20046;-66
2023/05/10 05:47:19;;;;;;;6.25;5.65;;;12.50;99.90;;;;;;4938315;28;20571;-67
2023/05/10 05:49:47;;;;;;;5.28;4.72;;;12.50;99.90;;;;;;4926287;28;20034;-67
2023/05/10 05:52:13;;;;;;;5.25;4.75;;;12.50;99.90;;;;;;4921667;28;20854;-66
2023/05/10 05:54:39;;;;;;;5.65;4.40;;;12.50;99.90;;;;;;4936424;28;20047;-65
2023/05/10 05:57:05;;;;;;;4.20;3.80;;;12.50;99.90;;;;;;4945772;28;20096;-66
2023/05/10 05:59:31;;;;;;;3.42;3.13;;;12.50;99.90;;;;;;4927343;28;20050;-66
2023/05/10 06:01:56;;;;;;;3.22;2.80;;;12.50;99.90;;;;;;4946272;28;20173;-66
2023/05/10 06:04:22;;;;;;;2.85;2.40;;;12.50;99.90;;;;;;4918731;28;20124;-66
2023/05/10 06:06:48;;;;;;;2.22;1.98;;;12.50;99.90;;;;;;4949080;28;20046;-65
2023/05/10 06:09:14;;;;;;;1.73;1.55;;;12.50;99.90;;;;;;4934030;28;20396;-66
2023/05/10 06:11:39;;;;;;;1.60;1.50;;;12.50;99.90;;;;;;4936967;28;20054;-66
2023/05/10 06:14:07;;;;;;;1.60;1.50;;;12.50;99.90;;;;;;4916567;28;20069;-66
2023/05/10 06:16:33;;;;;;;2.00;1.80;;;12.50;99.90;;;;;;4912673;28;20101;-68
2023/05/10 06:18:59;;;;;;;2.20;2.00;;;12.50;99.90;;;;;;4933996;28;20050;-67
2023/05/10 06:21:25;;;;;;;2.20;2.00;;;12.50;99.90;;;;;;4935423;28;20610;-65
2023/05/10 06:23:51;;;;;;;2.22;2.03;;;12.40;99.90;;;;;;4933155;28;20158;-66
2023/05/10 06:26:17;;;;;;;5.65;5.15;;;12.50;99.90;;;;;;4949722;28;20365;-67
2023/05/10 06:28:42;;;;;;;8.52;7.57;;;12.50;99.90;;;;;;4947111;28;20047;-66
2023/05/10 06:31:08;;;;;;;10.10;8.95;;;12.40;99.90;;;;;;4947304;28;20047;-66
2023/05/10 06:33:34;;;;;;;10.13;8.63;;;12.40;99.90;;;;;;4946819;28;20038;-66
2023/05/10 06:36:00;;;;;;;14.88;11.30;;;12.40;99.90;;;;;;4930977;28;21289;-66
2023/05/10 06:38:26;;;;;;;14.13;11.00;;;12.30;99.90;;;;;;4924565;28;20054;-65
2023/05/10 06:40:52;;;;;;;13.20;10.05;;;12.40;99.90;;;;;;4946296;28;20058;-65
2023/05/10 06:43:17;;;;;;;10.75;9.65;;;12.40;99.90;;;;;;4944531;28;20046;-66
2023/05/10 06:45:43;;;;;;;12.73;9.88;;;12.30;99.90;;;;;;4927344;28;20100;-65
2023/05/10 06:48:09;;;;;;;11.77;10.50;;;12.30;99.90;;;;;;4935311;28;20077;-65
2023/05/10 06:50:35;;;;;;;15.77;12.82;;;12.30;99.90;;;;;;4933072;28;20133;-65
2023/05/10 06:53:04;;;;;;;16.90;12.88;;;12.20;99.90;;;;;;4950576;28;20039;-65
2023/05/10 06:55:29;;;;;;;13.13;10.88;;;12.20;99.90;;;;;;4942033;28;20038;-66
2023/05/10 06:57:55;;;;;;;11.60;9.90;;;12.20;99.90;;;;;;4947040;28;20081;-66
2023/05/10 07:00:21;;;;;;;10.02;8.93;;;12.20;99.90;;;;;;4961880;28;20050;-65
2023/05/10 07:02:47;;;;;;;11.00;8.45;;;12.30;99.90;;;;;;4953575;28;20043;-66
2023/05/10 07:05:13;;;;;;;8.88;7.75;;;12.20;99.90;;;;;;4945648;28;20046;-66
2023/05/10 07:07:39;;;;;;;8.80;6.75;;;12.30;99.90;;;;;;4949676;28;20074;-65
2023/05/10 07:10:06;;;;;;;7.57;6.43;;;12.30;99.90;;;;;;4947957;28;20177;-67
2023/05/10 07:12:32;;;;;;;8.18;6.68;;;12.30;99.90;;;;;;4966747;28;20132;-65
2023/05/10 07:14:58;;;;;;;6.15;5.55;;;12.30;99.90;;;;;;4951464;28;20387;-66
2023/05/10 07:17:24;;;;;;;6.80;6.10;;;12.30;99.90;;;;;;4948083;28;20039;-66
2023/05/10 07:19:50;;;;;;;5.88;5.28;;;12.30;99.90;;;;;;4948621;28;20054;-66
2023/05/10 07:22:16;;;;;;;8.38;5.10;;;12.40;99.90;;;;;;4961583;28;22282;-66
2023/05/10 07:24:42;;;;;;;6.90;5.72;;;12.40;99.90;;;;;;4931584;28;20073;-66
2023/05/10 07:27:08;;;;;;;6.25;5.18;;;12.40;99.90;;;;;;4946432;28;20326;-66
2023/05/10 07:29:35;;;;;;;5.13;4.13;;;12.50;99.90;;;;;;4934795;28;20056;-65
2023/05/10 07:32:01;;;;;;;3.80;3.10;;;12.50;99.90;;;;;;4947393;28;20089;-66
2023/05/10 07:34:27;;;;;;;3.45;3.15;;;12.50;99.90;;;;;;4934239;28;20121;-66
2023/05/10 07:36:53;;;;;;;3.20;2.90;;;12.50;99.90;;;;;;4915988;28;20853;-66
2023/05/10 07:39:20;;;;;;;2.42;2.22;;;12.50;99.90;;;;;;4927095;28;20055;-65
2023/05/10 07:41:46;;;;;;;2.17;1.98;;;12.60;99.90;;;;;;4940199;28;20051;-66
2023/05/10 07:44:12;;;;;;;2.20;2.00;;;12.60;99.90;;;;;;4933961;28;20062;-66
2023/05/10 07:46:38;;;;;;;2.58;2.38;;;12.60;99.90;;;;;;4941389;28;20627;-66
2023/05/10 07:49:03;;;;;;;2.80;2.60;;;12.60;99.90;;;;;;4918644;28;20046;-66
2023/05/10 07:51:29;;;;;;;3.25;2.95;;;12.70;99.90;;;;;;4926647;28;20134;-66
2023/05/10 07:53:55;;;;;;;3.97;3.53;;;12.70;99.90;;;;;;4925405;28;20051;-66
2023/05/10 07:56:29;;;;;;;3.33;3.03;;;12.70;99.90;;;;;;4926919;28;20106;-66
2023/05/10 07:59:02;;;;;;;4.28;3.65;;;12.70;99.90;;;;;;4946755;28;20051;-66
2023/05/10 08:01:34;;;;;;;3.53;3.22;;;12.70;99.90;;;;;;4958917;28;20659;-66
2023/05/10 08:04:01;;;;;;;5.85;3.88;;;12.70;99.90;;;;;;4942672;28;20051;-66
2023/05/10 08:06:29;;;;;;;5.75;4.38;;;12.70;99.90;;;;;;4942051;28;20053;-66
2023/05/10 08:08:56;;;;;;;8.82;4.40;;;12.70;99.90;;;;;;4941277;28;20519;-66
2023/05/10 08:11:22;;;;;;;9.18;4.68;;;12.70;99.90;;;;;;4930591;28;20137;-66
2023/05/10 08:13:49;;;;;;;5.53;4.15;;;12.70;99.90;;;;;;4942089;28;20126;-66
2023/05/10 08:16:16;;;;;;;6.38;4.55;;;12.70;99.90;;;;;;4945078;28;20047;-65
2023/05/10 08:18:43;;;;;;;6.88;5.07;;;12.70;99.90;;;;;;4923671;28;20055;-66
2023/05/10 08:21:10;;;;;;;5.13;4.60;;;12.70;99.90;;;;;;4944798;28;20081;-66
2023/05/10 08:23:36;;;;;;;5.70;4.72;;;12.70;99.90;;;;;;4942406;28;20165;-66
2023/05/10 08:26:03;;;;;;;6.22;5.05;;;12.70;99.90;;;;;;4948000;28;20047;-66
2023/05/10 08:28:28;;;;;;;8.02;5.32;;;12.70;99.90;;;;;;4944042;28;20047;-66
2023/05/10 08:30:54;;;;;;;6.63;5.25;;;12.70;99.90;;;;;;4930994;28;20045;-66
2023/05/10 08:33:20;;;;;;;6.20;5.57;;;12.70;99.90;;;;;;4943412;28;20038;-65
2023/05/10 08:35:46;;;;;;;6.60;5.13;;;12.80;99.90;;;;;;4935019;28;20042;-66
2023/05/10 08:38:12;;;;;;;5.90;5.40;;;12.80;99.90;;;;;;4943883;28;20411;-66
2023/05/10 08:40:41;;;;;;;6.25;4.80;;;12.80;99.90;;;;;;4928783;28;20051;-66
2023/05/10 08:43:08;;;;;;;7.40;4.63;;;12.80;99.90;;;;;;4941693;28;20954;-66
2023/05/10 08:45:38;;;;;;;5.28;4.18;;;12.80;99.90;;;;;;4943195;28;20055;-66
2023/05/10 08:48:06;;;;;;;6.50;3.88;;;12.90;99.90;;;;;;4924930;28;20055;-66
2023/05/10 08:50:33;;;;;;;4.53;4.00;;;12.90;99.90;;;;;;4935995;28;20836;-66
2023/05/10 08:53:03;;;;;;;5.85;4.38;;;12.90;99.90;;;;;;4943388;28;20065;-66
2023/05/10 08:55:29;;;;;;;6.63;4.43;;;12.90;99.90;;;;;;4931572;28;20055;-66
2023/05/10 08:57:56;;;;;;;5.80;4.45;;;12.90;99.90;;;;;;4939439;28;20050;-66
2023/05/10 09:00:23;;;;;;;7.70;4.82;;;12.90;99.90;;;;;;4934569;28;20217;-66
2023/05/10 09:02:50;;;;;;;8.63;4.97;;;12.90;99.90;;;;;;4945494;28;21063;-66
2023/05/10 09:05:16;;;;;;;6.82;4.90;;;13.00;99.90;;;;;;4947149;28;20045;-66
2023/05/10 09:07:42;;;;;;;7.85;5.70;;;13.00;99.90;;;;;;4942366;28;20058;-66
2023/05/10 09:10:09;;;;;;;8.10;5.65;;;12.90;99.90;;;;;;4935501;28;20054;-66
2023/05/10 09:12:35;;;;;;;7.65;6.03;;;13.00;99.90;;;;;;4931130;28;20053;-66
2023/05/10 09:15:04;;;;;;;6.85;5.45;;;13.00;99.90;;;;;;4949974;28;20060;-65
2023/05/10 09:17:30;;;;;;;8.52;5.82;;;13.10;99.90;;;;;;4934538;28;20137;-66
2023/05/10 09:20:00;;;;;;;7.93;4.85;;;13.10;99.90;;;;;;4948171;28;20104;-66
2023/05/10 09:22:26;;;;;;;5.78;5.18;;;13.20;99.90;;;;;;4945703;28;20053;-65
2023/05/10 09:25:15;;;;;;;5.43;4.88;;;13.20;99.90;;;;;;4934488;28;20076;-66
2023/05/10 09:27:44;;;;;;;6.03;4.95;;;13.30;99.90;;;;;;4942581;28;20672;-66
2023/05/10 09:30:15;;;;;;;5.88;5.25;;;13.30;99.90;;;;;;4929646;28;20042;-66
2023/05/10 09:32:43;;;;;;;8.02;5.75;;;13.40;99.90;;;;;;4926539;28;20137;-66
2023/05/10 09:35:23;;;;;;;7.28;5.68;;;13.40;99.90;;;;;;4936826;28;20046;-66
2023/05/10 09:37:51;;;;;;;5.40;4.45;;;13.50;99.90;;;;;;4941804;28;20046;-66
2023/05/10 09:40:19;;;;;;;6.90;3.90;;;13.50;99.90;;;;;;4942386;28;20861;-66
2023/05/10 09:43:11;;;;;;;4.68;3.70;;;13.60;99.90;;;;;;4944636;28;20092;-66
2023/05/10 09:45:36;;;;;;;6.10;3.75;;;13.60;99.90;;;;;;4895883;28;20113;-66
2023/05/10 09:48:03;;;;;;;5.07;3.95;;;13.70;99.90;;;;;;4935881;28;20073;-66
2023/05/10 09:50:30;;;;;;;4.93;3.90;;;13.70;99.90;;;;;;4944944;28;20347;-66
2023/05/10 09:53:03;;;;;;;7.93;4.45;;;13.80;99.90;;;;;;4930410;28;20656;-66
2023/05/10 09:55:40;;;;;;;5.38;4.20;;;13.80;99.90;;;;;;4949903;28;20053;-66
2023/05/10 09:58:10;;;;;;;5.53;4.35;;;13.80;99.90;;;;;;4943250;28;20169;-66
2023/05/10 10:00:37;;;;;;;4.75;3.85;;;13.90;99.90;;;;;;4927860;28;20141;-66
2023/05/10 10:03:03;;;;;;;5.05;4.25;;;14.00;99.90;;;;;;4949489;28;20042;-66
2023/05/10 10:05:34;;;;;;;6.35;4.40;;;14.10;99.90;;;;;;4940930;28;20489;-65
2023/05/10 10:08:04;;;;;;;5.00;3.22;;;14.20;99.90;;;;;;4951061;28;20939;-66
2023/05/10 10:10:31;;;;;;;4.13;3.38;;;14.40;99.90;;;;;;4957421;28;20042;-66
2023/05/10 10:13:01;;;;;;;4.03;3.63;;;14.50;99.90;;;;;;4955156;28;20046;-66
2023/05/10 10:15:27;;;;;;;4.13;3.42;;;14.60;99.90;;;;;;4953617;28;20046;-66
2023/05/10 10:17:53;;;;;;;3.55;3.25;;;14.60;99.90;;;;;;4952828;28;20069;-66
2023/05/10 10:20:21;;;;;;;4.63;3.13;;;14.70;99.90;;;;;;4939871;28;20058;-66
2023/05/10 10:22:47;;;;;;;3.30;3.00;;;14.80;99.90;;;;;;4949746;28;20042;-66
2023/05/10 10:25:17;;;;;;;4.05;3.03;;;14.80;99.90;;;;;;4923532;28;20874;-66
2023/05/10 10:27:48;;;;;;;7.60;3.60;;;14.90;99.90;;;;;;4950721;28;20046;-67
2023/05/10 10:30:21;;;;;;;3.92;3.25;;;14.90;99.90;;;;;;4952644;28;20101;-66
2023/05/10 10:33:05;;;;;;;3.45;2.50;;;15.00;99.90;;;;;;4940804;28;20046;-66
2023/05/10 10:35:32;;;;;;;5.70;2.90;;;15.00;99.90;;;;;;4953487;28;20038;-66
2023/05/10 10:37:58;;;;;;;6.10;3.38;;;15.10;99.90;;;;;;4947783;28;21720;-66
2023/05/10 10:40:29;;;;;;;4.68;3.70;;;15.10;99.90;;;;;;4906480;28;20076;-66
2023/05/10 10:42:55;;;;;;;7.53;4.35;;;15.10;99.90;;;;;;4937750;28;20054;-66
2023/05/10 10:45:22;;;;;;;5.55;4.97;;;15.00;99.90;;;;;;4929714;28;20081;-67
2023/05/10 10:47:49;;;;;;;6.78;5.65;;;15.10;99.90;;;;;;4921542;28;20042;-66
2023/05/10 10:50:18;;;;;;;7.43;5.90;;;15.00;99.90;;;;;;4938454;28;20084;-66
2023/05/10 10:52:45;;;;;;;6.05;5.45;;;15.10;99.90;;;;;;4937541;28;20138;-67
2023/05/10 10:55:12;;;;;;;7.15;5.50;;;15.00;99.90;;;;;;4936702;28;20131;-66
2023/05/10 10:57:41;;;;;;;6.05;5.35;;;15.00;99.90;;;;;;4952689;28;20047;-66
2023/05/10 11:00:32;;;;;;;6.20;5.32;;;15.00;99.90;;;;;;4944411;28;20512;-67
2023/05/10 11:02:58;;;;;;;6.97;6.07;;;15.00;99.90;;;;;;4942339;28;20054;-66
2023/05/10 11:05:36;;;;;;;10.68;6.70;;;15.00;99.90;;;;;;4953428;28;20043;-66
2023/05/10 11:08:20;;;;;;;11.07;7.80;;;15.00;99.90;;;;;;4965606;28;20081;-67
2023/05/10 11:11:09;;;;;;;11.02;7.82;;;15.00;99.90;;;;;;4941699;28;20505;-66
2023/05/10 11:13:40;;;;;;;10.32;8.43;;;15.10;99.90;;;;;;4946682;28;20054;-66
2023/05/10 11:16:23;;;;;;;10.18;6.57;;;15.20;99.90;;;;;;4949070;28;20042;-66
2023/05/10 11:19:06;;;;;;;11.10;7.05;;;15.20;99.90;;;;;;4926865;28;21637;-66
2023/05/10 11:21:34;;;;;;;12.10;7.85;;;15.30;99.90;;;;;;4947366;28;20424;-66
2023/05/10 11:24:05;;;;;;;11.80;7.90;;;15.30;99.90;;;;;;4950187;28;20061;-66
2023/05/10 11:26:33;;;;;;;9.30;8.00;;;15.30;99.90;;;;;;4913174;28;20139;-66
2023/05/10 11:29:00;;;;;;;11.07;7.80;;;15.30;99.90;;;;;;4950394;28;20077;-68
2023/05/10 11:31:26;;;;;;;11.93;9.38;;;15.30;99.90;;;;;;4928693;28;20053;-67
2023/05/10 11:33:58;;;;;;;11.55;9.05;;;15.40;99.90;;;;;;4915945;28;20061;-68
2023/05/10 11:36:31;;;;;;;13.97;9.10;;;15.40;99.90;;;;;;4937111;28;20141;-66
2023/05/10 11:38:57;;;;;;;12.95;8.85;;;15.40;99.90;;;;;;4952881;28;20543;-66
2023/05/10 11:41:24;;;;;;;11.73;8.93;;;15.40;99.90;;;;;;4953289;28;20042;-65
2023/05/10 11:43:51;;;;;;;13.32;9.27;;;15.40;99.90;;;;;;4941465;28;20050;-66
2023/05/10 11:46:20;;;;;;;11.98;9.20;;;15.50;99.90;;;;;;4939558;28;20043;-66
2023/05/10 11:48:49;;;;;;;12.70;9.10;;;15.50;99.90;;;;;;4950920;28;20749;-65
2023/05/10 11:51:15;;;;;;;11.90;8.80;;;15.50;99.90;;;;;;4951869;28;20136;-66
2023/05/10 11:53:41;;;;;;;12.13;9.05;;;15.50;99.90;;;;;;4920313;28;20042;-66
2023/05/10 11:56:15;;;;;;;13.07;8.50;;;15.40;99.90;;;;;;4948496;28;20043;-66
2023/05/10 11:58:41;;;;;;;12.63;8.73;;;15.40;99.90;;;;;;4937840;28;20046;-65
2023/05/10 12:01:09;;;;;;;12.75;8.85;;;15.40;99.90;;;;;;4954797;28;20057;-65
2023/05/10 12:03:35;;;;;;;14.25;9.23;;;15.40;99.90;;;;;;4937753;28;20137;-66
2023/05/10 12:06:02;;;;;;;13.85;9.52;;;15.30;99.90;;;;;;4957199;28;20131;-65
2023/05/10 12:08:29;;;;;;;12.95;9.48;;;15.20;99.90;;;;;;4949704;28;20054;-66
2023/05/10 12:11:06;;;;;;;12.10;9.57;;;15.20;99.90;;;;;;4952162;28;20073;-66
2023/05/10 12:13:32;;;;;;;12.57;9.55;;;15.20;99.90;;;;;;4921090;28;20053;-65
2023/05/10 12:15:58;;;;;;;14.70;10.35;;;15.10;99.90;;;;;;4949119;28;20097;-65
2023/05/10 12:18:25;;;;;;;14.55;10.63;;;15.10;99.90;;;;;;4921677;28;20057;-66
2023/05/10 12:20:54;;;;;;;16.35;10.18;;;15.10;99.90;;;;;;4925219;28;20085;-66
2023/05/10 12:23:20;;;;;;;15.38;10.52;;;15.10;99.90;;;;;;4945179;28;20050;-65
2023/05/10 12:25:46;;;;;;;13.65;10.50;;;15.10;99.90;;;;;;4945857;28;20046;-66
2023/05/10 12:28:12;;;;;;;13.32;9.88;;;15.00;99.90;;;;;;4931249;28;20084;-66
2023/05/10 12:30:38;;;;;;;14.27;10.02;;;15.00;99.90;;;;;;4948180;28;20337;-65
2023/05/10 12:33:12;;;;;;;14.95;10.57;;;15.00;99.90;;;;;;4942128;28;20046;-66
2023/05/10 12:35:50;;;;;;;11.27;10.05;;;15.10;99.90;;;;;;4946317;28;20089;-66
2023/05/10 12:38:25;;;;;;;15.25;9.75;;;15.10;99.90;;;;;;4919766;28;20460;-66
2023/05/10 12:40:50;;;;;;;11.00;9.05;;;15.10;99.90;;;;;;4951515;28;20157;-65
2023/05/10 12:43:16;;;;;;;11.57;9.38;;;15.10;99.90;;;;;;4947835;28;20118;-66
2023/05/10 12:45:42;;;;;;;10.80;8.90;;;15.20;99.90;;;;;;4926279;28;20145;-65
2023/05/10 12:48:07;;;;;;;10.43;8.93;;;15.20;99.90;;;;;;4936021;28;20057;-66
2023/05/10 12:50:33;;;;;;;10.25;8.60;;;15.20;99.90;;;;;;4946958;28;20401;-66